sensor_id;sensor_type;location;lat;lon;timestamp;pressure;altitude;pressure_sealevel;temperature;humidity
76987;BME280;65922;50.086;8.598;2023-02-28T00:00:53;101840;;;0.4;63.8
76987;BME280;65922;50.086;8.598;2023-02-28T00:01:52;101850;;;0.4;63.8
76987;BME280;65922;50.086;8.598;2023-02-28T00:02:52;101850;;;0.5;63.7
76987;BME280;65922;50.086;8.598;2023-02-28T00:03:52;101850;;;0.4;63.8
76987;BME280;65922;50.086;8.598;2023-02-28T00:04:52;101850;;;0.3;64.2
76987;BME280;65922;50.086;8.598;2023-02-28T00:05:52;101850;;;0.4;64.6
76987;BME280;65922;50.086;8.598;2023-02-28T00:06:52;101840;;;0.3;64.7
76987;BME280;65922;50.086;8.598;2023-02-28T00:07:53;101850;;;0.3;64.8
76987;BME280;65922;50.086;8.598;2023-02-28T00:08:53;101850;;;0.3;65
76987;BME280;65922;50.086;8.598;2023-02-28T00:09:52;101840;;;0.3;65.4
76987;BME280;65922;50.086;8.598;2023-02-28T00:10:52;101850;;;0.3;65.4
76987;BME280;65922;50.086;8.598;2023-02-28T00:11:52;101850;;;0.4;65.2
76987;BME280;65922;50.086;8.598;2023-02-28T00:12:53;101850;;;0.3;65
76987;BME280;65922;50.086;8.598;2023-02-28T00:13:52;101850;;;0.5;64.4
76987;BME280;65922;50.086;8.598;2023-02-28T00:14:52;101850;;;0.4;64.7
76987;BME280;65922;50.086;8.598;2023-02-28T00:16:00;101850;;;0.3;65.2
76987;BME280;65922;50.086;8.598;2023-02-28T00:16:52;101850;;;0.3;65.5
76987;BME280;65922;50.086;8.598;2023-02-28T00:17:53;101850;;;0.1;66.1
76987;BME280;65922;50.086;8.598;2023-02-28T00:18:52;101850;;;0.1;66.3
76987;BME280;65922;50.086;8.598;2023-02-28T00:19:52;101850;;;0;67.2
76987;BME280;65922;50.086;8.598;2023-02-28T00:20:52;101850;;;0;67
76987;BME280;65922;50.086;8.598;2023-02-28T00:21:53;101850;;;0.1;66.8
76987;BME280;65922;50.086;8.598;2023-02-28T00:22:53;101850;;;0.2;66.6
76987;BME280;65922;50.086;8.598;2023-02-28T00:23:52;101850;;;0.1;66.8
76987;BME280;65922;50.086;8.598;2023-02-28T00:24:52;101840;;;0;67.4
76987;BME280;65922;50.086;8.598;2023-02-28T00:25:52;101850;;;0.1;67.4
76987;BME280;65922;50.086;8.598;2023-02-28T00:26:53;101840;;;0;67.7
76987;BME280;65922;50.086;8.598;2023-02-28T00:27:52;101850;;;-0.1;68.2
76987;BME280;65922;50.086;8.598;2023-02-28T00:28:52;101850;;;0;68.1
76987;BME280;65922;50.086;8.598;2023-02-28T00:29:52;101850;;;-0.1;68.8
76987;BME280;65922;50.086;8.598;2023-02-28T00:30:52;101840;;;-0.1;68.8
76987;BME280;65922;50.086;8.598;2023-02-28T00:31:53;101850;;;0.2;68.3
76987;BME280;65922;50.086;8.598;2023-02-28T00:32:52;101850;;;0.1;68.4
76987;BME280;65922;50.086;8.598;2023-02-28T00:33:52;101850;;;0;68.9
76987;BME280;65922;50.086;8.598;2023-02-28T00:34:52;101850;;;0;68.9
76987;BME280;65922;50.086;8.598;2023-02-28T00:36:00;101850;;;0;68.8
76987;BME280;65922;50.086;8.598;2023-02-28T00:36:52;101850;;;0;68.8
76987;BME280;65922;50.086;8.598;2023-02-28T00:37:53;101850;;;0.1;68.6
76987;BME280;65922;50.086;8.598;2023-02-28T00:38:52;101850;;;0.1;68.5
76987;BME280;65922;50.086;8.598;2023-02-28T00:39:52;101850;;;0;68.9
76987;BME280;65922;50.086;8.598;2023-02-28T00:40:52;101850;;;0;68.9
76987;BME280;65922;50.086;8.598;2023-02-28T00:41:52;101850;;;0.1;68.9
76987;BME280;65922;50.086;8.598;2023-02-28T00:42:52;101840;;;0;69.2
76987;BME280;65922;50.086;8.598;2023-02-28T00:43:52;101850;;;-0.1;69.4
76987;BME280;65922;50.086;8.598;2023-02-28T00:44:52;101850;;;0;69.3
76987;BME280;65922;50.086;8.598;2023-02-28T00:45:52;101850;;;0.1;69.4
76987;BME280;65922;50.086;8.598;2023-02-28T00:46:52;101850;;;0;69.4
76987;BME280;65922;50.086;8.598;2023-02-28T00:47:52;101850;;;-0.1;69.6
76987;BME280;65922;50.086;8.598;2023-02-28T00:48:52;101850;;;0;69.6
76987;BME280;65922;50.086;8.598;2023-02-28T00:49:52;101850;;;0;69.6
76987;BME280;65922;50.086;8.598;2023-02-28T00:50:52;101850;;;-0.1;69.8
76987;BME280;65922;50.086;8.598;2023-02-28T00:51:53;101850;;;-0.2;70.3
76987;BME280;65922;50.086;8.598;2023-02-28T00:52:52;101840;;;-0.3;70.8
76987;BME280;65922;50.086;8.598;2023-02-28T00:53:52;101840;;;-0.1;70.3
76987;BME280;65922;50.086;8.598;2023-02-28T00:54:52;101850;;;-0.3;70.8
76987;BME280;65922;50.086;8.598;2023-02-28T00:55:52;101850;;;-0.3;71.1
76987;BME280;65922;50.086;8.598;2023-02-28T00:56:52;101850;;;-0.2;70.9
76987;BME280;65922;50.086;8.598;2023-02-28T00:57:53;101850;;;-0.3;70.9
76987;BME280;65922;50.086;8.598;2023-02-28T00:58:52;101840;;;-0.1;70.4
76987;BME280;65922;50.086;8.598;2023-02-28T00:59:52;101840;;;-0.2;70.8
76987;BME280;65922;50.086;8.598;2023-02-28T01:00:53;101850;;;-0.3;71.1
76987;BME280;65922;50.086;8.598;2023-02-28T01:01:52;101840;;;-0.3;71.2
76987;BME280;65922;50.086;8.598;2023-02-28T01:02:52;101850;;;-0.2;71
76987;BME280;65922;50.086;8.598;2023-02-28T01:03:52;101850;;;-0.4;71.5
76987;BME280;65922;50.086;8.598;2023-02-28T01:04:52;101850;;;-0.2;71.3
76987;BME280;65922;50.086;8.598;2023-02-28T01:05:52;101850;;;-0.3;71.4
76987;BME280;65922;50.086;8.598;2023-02-28T01:06:52;101840;;;-0.3;71.7
76987;BME280;65922;50.086;8.598;2023-02-28T01:07:52;101850;;;-0.3;71.6
76987;BME280;65922;50.086;8.598;2023-02-28T01:08:52;101850;;;-0.3;72
76987;BME280;65922;50.086;8.598;2023-02-28T01:09:52;101850;;;-0.2;71.6
76987;BME280;65922;50.086;8.598;2023-02-28T01:10:53;101850;;;-0.3;71.8
76987;BME280;65922;50.086;8.598;2023-02-28T01:11:53;101850;;;-0.2;71.5
76987;BME280;65922;50.086;8.598;2023-02-28T01:12:52;101850;;;-0.3;71.8
76987;BME280;65922;50.086;8.598;2023-02-28T01:13:52;101840;;;-0.3;72.2
76987;BME280;65922;50.086;8.598;2023-02-28T01:14:52;101850;;;-0.4;72.4
76987;BME280;65922;50.086;8.598;2023-02-28T01:15:55;101850;;;-0.3;72.6
76987;BME280;65922;50.086;8.598;2023-02-28T01:16:52;101840;;;-0.2;72.1
76987;BME280;65922;50.086;8.598;2023-02-28T01:17:52;101840;;;-0.2;73
76987;BME280;65922;50.086;8.598;2023-02-28T01:18:52;101840;;;-0.2;72
76987;BME280;65922;50.086;8.598;2023-02-28T01:19:53;101840;;;-0.2;71.9
76987;BME280;65922;50.086;8.598;2023-02-28T01:20:52;101830;;;-0.1;71.7
76987;BME280;65922;50.086;8.598;2023-02-28T01:21:53;101840;;;-0.2;72.2
76987;BME280;65922;50.086;8.598;2023-02-28T01:22:52;101840;;;-0.2;72.5
76987;BME280;65922;50.086;8.598;2023-02-28T01:23:52;101840;;;-0.3;72.8
76987;BME280;65922;50.086;8.598;2023-02-28T01:24:53;101840;;;-0.3;73.1
76987;BME280;65922;50.086;8.598;2023-02-28T01:25:52;101840;;;-0.4;73.2
76987;BME280;65922;50.086;8.598;2023-02-28T01:26:52;101840;;;-0.3;73.1
76987;BME280;65922;50.086;8.598;2023-02-28T01:27:53;101840;;;-0.3;72.9
76987;BME280;65922;50.086;8.598;2023-02-28T01:28:53;101840;;;-0.4;73.2
76987;BME280;65922;50.086;8.598;2023-02-28T01:29:52;101830;;;-0.4;73.4
76987;BME280;65922;50.086;8.598;2023-02-28T01:30:52;101840;;;-0.4;73.6
76987;BME280;65922;50.086;8.598;2023-02-28T01:31:53;101840;;;-0.4;73.4
76987;BME280;65922;50.086;8.598;2023-02-28T01:32:52;101840;;;-0.4;73.3
76987;BME280;65922;50.086;8.598;2023-02-28T01:33:52;101840;;;-0.5;73.7
76987;BME280;65922;50.086;8.598;2023-02-28T01:34:53;101840;;;-0.5;73.8
76987;BME280;65922;50.086;8.598;2023-02-28T01:35:57;101830;;;-0.5;73.9
76987;BME280;65922;50.086;8.598;2023-02-28T01:36:52;101830;;;-0.5;73.9
76987;BME280;65922;50.086;8.598;2023-02-28T01:37:52;101830;;;-0.3;73.7
76987;BME280;65922;50.086;8.598;2023-02-28T01:38:52;101830;;;-0.4;73.7
76987;BME280;65922;50.086;8.598;2023-02-28T01:40:00;101830;;;-0.4;73.7
76987;BME280;65922;50.086;8.598;2023-02-28T01:40:53;101840;;;-0.4;73.8
76987;BME280;65922;50.086;8.598;2023-02-28T01:41:52;101830;;;-0.4;73.9
76987;BME280;65922;50.086;8.598;2023-02-28T01:42:52;101830;;;-0.4;73.7
76987;BME280;65922;50.086;8.598;2023-02-28T01:43:54;101830;;;-0.4;73.8
76987;BME280;65922;50.086;8.598;2023-02-28T01:44:55;101840;;;-0.4;73.8
76987;BME280;65922;50.086;8.598;2023-02-28T01:45:53;101830;;;-0.4;73.8
76987;BME280;65922;50.086;8.598;2023-02-28T01:46:52;101830;;;-0.4;73.8
76987;BME280;65922;50.086;8.598;2023-02-28T01:47:54;101830;;;-0.5;74.3
76987;BME280;65922;50.086;8.598;2023-02-28T01:48:54;101830;;;-0.5;74.5
76987;BME280;65922;50.086;8.598;2023-02-28T01:49:53;101830;;;-0.5;74.6
76987;BME280;65922;50.086;8.598;2023-02-28T01:50:53;101820;;;-0.5;74.7
76987;BME280;65922;50.086;8.598;2023-02-28T01:51:53;101820;;;-0.4;74.1
76987;BME280;65922;50.086;8.598;2023-02-28T01:52:52;101830;;;-0.4;74.1
76987;BME280;65922;50.086;8.598;2023-02-28T01:53:54;101820;;;-0.5;74.2
76987;BME280;65922;50.086;8.598;2023-02-28T01:54:53;101820;;;-0.4;74.3
76987;BME280;65922;50.086;8.598;2023-02-28T01:55:52;101820;;;-0.5;74.4
76987;BME280;65922;50.086;8.598;2023-02-28T01:56:53;101830;;;-0.3;73.8
76987;BME280;65922;50.086;8.598;2023-02-28T01:57:53;101820;;;-0.4;74.3
76987;BME280;65922;50.086;8.598;2023-02-28T01:58:53;101820;;;-0.6;74.7
76987;BME280;65922;50.086;8.598;2023-02-28T01:59:54;101830;;;-0.5;74.6
76987;BME280;65922;50.086;8.598;2023-02-28T02:00:52;101820;;;-0.5;74.7
76987;BME280;65922;50.086;8.598;2023-02-28T02:01:53;101820;;;-0.5;74.3
76987;BME280;65922;50.086;8.598;2023-02-28T02:02:53;101820;;;-0.6;74.6
76987;BME280;65922;50.086;8.598;2023-02-28T02:03:53;101820;;;-0.7;75.2
76987;BME280;65922;50.086;8.598;2023-02-28T02:04:53;101820;;;-0.7;75.6
76987;BME280;65922;50.086;8.598;2023-02-28T02:05:52;101820;;;-0.7;75.4
76987;BME280;65922;50.086;8.598;2023-02-28T02:06:52;101820;;;-0.8;75.6
76987;BME280;65922;50.086;8.598;2023-02-28T02:07:54;101830;;;-0.8;75.8
76987;BME280;65922;50.086;8.598;2023-02-28T02:08:52;101820;;;-0.8;75.9
76987;BME280;65922;50.086;8.598;2023-02-28T02:09:59;101830;;;-0.8;76
76987;BME280;65922;50.086;8.598;2023-02-28T02:10:53;101820;;;-0.9;76.1
76987;BME280;65922;50.086;8.598;2023-02-28T02:11:52;101830;;;-0.9;76.3
76987;BME280;65922;50.086;8.598;2023-02-28T02:12:57;101820;;;-0.8;76.3
76987;BME280;65922;50.086;8.598;2023-02-28T02:13:57;101820;;;-0.9;76.3
76987;BME280;65922;50.086;8.598;2023-02-28T02:14:55;101820;;;-0.9;76.4
76987;BME280;65922;50.086;8.598;2023-02-28T02:15:55;101820;;;-0.8;76.4
76987;BME280;65922;50.086;8.598;2023-02-28T02:16:57;101820;;;-0.8;76.1
76987;BME280;65922;50.086;8.598;2023-02-28T02:17:53;101820;;;-0.8;76
76987;BME280;65922;50.086;8.598;2023-02-28T02:18:53;101820;;;-0.8;76
76987;BME280;65922;50.086;8.598;2023-02-28T02:20:02;101810;;;-0.7;75.4
76987;BME280;65922;50.086;8.598;2023-02-28T02:21:31;101820;;;-0.8;75.6
76987;BME280;65922;50.086;8.598;2023-02-28T02:21:58;101830;;;-0.9;75.9
76987;BME280;65922;50.086;8.598;2023-02-28T02:23:02;101830;;;-1;76.1
76987;BME280;65922;50.086;8.598;2023-02-28T02:24:14;101820;;;-0.8;75.7
76987;BME280;65922;50.086;8.598;2023-02-28T02:24:58;101810;;;-0.9;75.5
76987;BME280;65922;50.086;8.598;2023-02-28T02:25:53;101820;;;-0.9;75.8
76987;BME280;65922;50.086;8.598;2023-02-28T02:27:57;101820;;;-1;75.7
76987;BME280;65922;50.086;8.598;2023-02-28T02:27:59;101820;;;-0.8;75.4
76987;BME280;65922;50.086;8.598;2023-02-28T02:28:56;101820;;;-0.9;75.9
76987;BME280;65922;50.086;8.598;2023-02-28T02:30:04;101820;;;-1;75.9
76987;BME280;65922;50.086;8.598;2023-02-28T02:30:57;101830;;;-0.9;75.9
76987;BME280;65922;50.086;8.598;2023-02-28T02:31:56;101820;;;-0.8;75.7
76987;BME280;65922;50.086;8.598;2023-02-28T02:34:56;101820;;;-0.9;76.3
76987;BME280;65922;50.086;8.598;2023-02-28T02:34:59;101820;;;-1;76.3
76987;BME280;65922;50.086;8.598;2023-02-28T02:35:53;101820;;;-1.1;76.8
76987;BME280;65922;50.086;8.598;2023-02-28T02:36:53;101820;;;-1.2;77.2
76987;BME280;65922;50.086;8.598;2023-02-28T02:37:54;101820;;;-1.1;77
76987;BME280;65922;50.086;8.598;2023-02-28T02:38:53;101810;;;-1.3;77.5
76987;BME280;65922;50.086;8.598;2023-02-28T02:39:53;101810;;;-1.2;77.6
76987;BME280;65922;50.086;8.598;2023-02-28T02:40:55;101810;;;-1.4;78.2
76987;BME280;65922;50.086;8.598;2023-02-28T02:41:53;101810;;;-1.4;78.1
76987;BME280;65922;50.086;8.598;2023-02-28T02:42:54;101810;;;-1.3;78
76987;BME280;65922;50.086;8.598;2023-02-28T02:43:53;101820;;;-1.3;78
76987;BME280;65922;50.086;8.598;2023-02-28T02:44:53;101820;;;-1.2;77.5
76987;BME280;65922;50.086;8.598;2023-02-28T02:45:53;101810;;;-1.4;77.9
76987;BME280;65922;50.086;8.598;2023-02-28T02:46:53;101810;;;-1.3;77.4
76987;BME280;65922;50.086;8.598;2023-02-28T02:47:53;101810;;;-1.3;77.5
76987;BME280;65922;50.086;8.598;2023-02-28T02:48:52;101800;;;-1.2;77.1
76987;BME280;65922;50.086;8.598;2023-02-28T02:49:53;101810;;;-1.3;77.1
76987;BME280;65922;50.086;8.598;2023-02-28T02:50:54;101820;;;-1.2;77
76987;BME280;65922;50.086;8.598;2023-02-28T02:51:52;101810;;;-1.3;77
76987;BME280;65922;50.086;8.598;2023-02-28T02:52:54;101820;;;-1.2;77
76987;BME280;65922;50.086;8.598;2023-02-28T02:53:53;101810;;;-1.2;76.5
76987;BME280;65922;50.086;8.598;2023-02-28T02:54:53;101820;;;-1.2;76.5
76987;BME280;65922;50.086;8.598;2023-02-28T02:55:52;101820;;;-1.2;76.7
76987;BME280;65922;50.086;8.598;2023-02-28T02:56:52;101820;;;-1.1;76.3
76987;BME280;65922;50.086;8.598;2023-02-28T02:57:53;101820;;;-1.2;76.4
76987;BME280;65922;50.086;8.598;2023-02-28T02:58:53;101810;;;-1.2;76.4
76987;BME280;65922;50.086;8.598;2023-02-28T02:59:53;101820;;;-1.1;76.1
76987;BME280;65922;50.086;8.598;2023-02-28T03:00:53;101820;;;-1.4;76.8
76987;BME280;65922;50.086;8.598;2023-02-28T03:01:53;101820;;;-1.3;76.7
76987;BME280;65922;50.086;8.598;2023-02-28T03:02:52;101810;;;-1.3;76.8
76987;BME280;65922;50.086;8.598;2023-02-28T03:03:54;101820;;;-1.2;76.3
76987;BME280;65922;50.086;8.598;2023-02-28T03:04:53;101820;;;-1.2;76.3
76987;BME280;65922;50.086;8.598;2023-02-28T03:05:52;101820;;;-1.1;75.9
76987;BME280;65922;50.086;8.598;2023-02-28T03:06:52;101820;;;-1.3;76.2
76987;BME280;65922;50.086;8.598;2023-02-28T03:07:52;101820;;;-1.3;76.8
76987;BME280;65922;50.086;8.598;2023-02-28T03:08:53;101810;;;-1.5;77.5
76987;BME280;65922;50.086;8.598;2023-02-28T03:09:53;101820;;;-1.5;77.8
76987;BME280;65922;50.086;8.598;2023-02-28T03:10:55;101820;;;-1.4;77.8
76987;BME280;65922;50.086;8.598;2023-02-28T03:11:53;101810;;;-1.3;77.4
76987;BME280;65922;50.086;8.598;2023-02-28T03:12:53;101810;;;-1.3;77.2
76987;BME280;65922;50.086;8.598;2023-02-28T03:14:00;101810;;;-1.3;77
76987;BME280;65922;50.086;8.598;2023-02-28T03:14:56;101810;;;-1.2;76.8
76987;BME280;65922;50.086;8.598;2023-02-28T03:15:57;101810;;;-1.3;77.1
76987;BME280;65922;50.086;8.598;2023-02-28T03:16:56;101810;;;-1.4;77.6
76987;BME280;65922;50.086;8.598;2023-02-28T03:17:56;101820;;;-1.4;77.7
76987;BME280;65922;50.086;8.598;2023-02-28T03:18:53;101820;;;-1.5;78
76987;BME280;65922;50.086;8.598;2023-02-28T03:19:55;101820;;;-1.5;77.9
76987;BME280;65922;50.086;8.598;2023-02-28T03:20:54;101810;;;-1.6;78.3
76987;BME280;65922;50.086;8.598;2023-02-28T03:21:56;101820;;;-1.5;78.2
76987;BME280;65922;50.086;8.598;2023-02-28T03:22:55;101820;;;-1.5;78.1
76987;BME280;65922;50.086;8.598;2023-02-28T03:23:53;101810;;;-1.4;77.6
76987;BME280;65922;50.086;8.598;2023-02-28T03:24:54;101810;;;-1.5;77.6
76987;BME280;65922;50.086;8.598;2023-02-28T03:25:54;101810;;;-1.5;77.9
76987;BME280;65922;50.086;8.598;2023-02-28T03:26:54;101820;;;-1.6;78.2
76987;BME280;65922;50.086;8.598;2023-02-28T03:27:54;101820;;;-1.6;78.4
76987;BME280;65922;50.086;8.598;2023-02-28T03:28:53;101810;;;-1.5;77.7
76987;BME280;65922;50.086;8.598;2023-02-28T03:29:54;101820;;;-1.5;77.7
76987;BME280;65922;50.086;8.598;2023-02-28T03:30:54;101820;;;-1.5;77.8
76987;BME280;65922;50.086;8.598;2023-02-28T03:31:53;101820;;;-1.5;77.8
76987;BME280;65922;50.086;8.598;2023-02-28T03:32:54;101820;;;-1.5;77.5
76987;BME280;65922;50.086;8.598;2023-02-28T03:33:54;101820;;;-1.5;77.6
76987;BME280;65922;50.086;8.598;2023-02-28T03:34:54;101820;;;-1.6;77.7
76987;BME280;65922;50.086;8.598;2023-02-28T03:35:53;101810;;;-1.6;78.6
76987;BME280;65922;50.086;8.598;2023-02-28T03:36:53;101810;;;-1.8;78.7
76987;BME280;65922;50.086;8.598;2023-02-28T03:37:53;101820;;;-1.8;78.8
76987;BME280;65922;50.086;8.598;2023-02-28T03:38:54;101810;;;-1.7;78.8
76987;BME280;65922;50.086;8.598;2023-02-28T03:39:53;101810;;;-1.6;78.3
76987;BME280;65922;50.086;8.598;2023-02-28T03:40:55;101820;;;-1.7;78.4
76987;BME280;65922;50.086;8.598;2023-02-28T03:41:54;101820;;;-1.7;78.8
76987;BME280;65922;50.086;8.598;2023-02-28T03:42:54;101810;;;-1.7;78.4
76987;BME280;65922;50.086;8.598;2023-02-28T03:43:53;101820;;;-1.8;78.6
76987;BME280;65922;50.086;8.598;2023-02-28T03:44:53;101810;;;-1.7;78.6
76987;BME280;65922;50.086;8.598;2023-02-28T03:45:52;101820;;;-1.8;78.7
76987;BME280;65922;50.086;8.598;2023-02-28T03:46:54;101810;;;-1.8;78.8
76987;BME280;65922;50.086;8.598;2023-02-28T03:47:53;101820;;;-1.8;79.1
76987;BME280;65922;50.086;8.598;2023-02-28T03:48:54;101820;;;-1.9;79.2
76987;BME280;65922;50.086;8.598;2023-02-28T03:49:53;101810;;;-1.6;78.5
76987;BME280;65922;50.086;8.598;2023-02-28T03:50:53;101810;;;-1.8;78.8
76987;BME280;65922;50.086;8.598;2023-02-28T03:51:53;101820;;;-1.7;78.4
76987;BME280;65922;50.086;8.598;2023-02-28T03:52:53;101820;;;-1.8;78.8
76987;BME280;65922;50.086;8.598;2023-02-28T03:53:53;101820;;;-1.8;78.7
76987;BME280;65922;50.086;8.598;2023-02-28T03:54:53;101820;;;-1.8;78.6
76987;BME280;65922;50.086;8.598;2023-02-28T03:55:53;101810;;;-1.8;78.8
76987;BME280;65922;50.086;8.598;2023-02-28T03:56:53;101820;;;-1.8;79
76987;BME280;65922;50.086;8.598;2023-02-28T03:57:54;101820;;;-1.8;78.9
76987;BME280;65922;50.086;8.598;2023-02-28T03:58:54;101820;;;-1.8;78.9
76987;BME280;65922;50.086;8.598;2023-02-28T03:59:54;101820;;;-1.9;79.2
76987;BME280;65922;50.086;8.598;2023-02-28T04:00:54;101820;;;-2;79.5
76987;BME280;65922;50.086;8.598;2023-02-28T04:01:52;101820;;;-1.9;79.6
76987;BME280;65922;50.086;8.598;2023-02-28T04:02:52;101820;;;-1.9;79.3
76987;BME280;65922;50.086;8.598;2023-02-28T04:03:53;101820;;;-1.8;79.1
76987;BME280;65922;50.086;8.598;2023-02-28T04:04:52;101820;;;-1.9;79.4
76987;BME280;65922;50.086;8.598;2023-02-28T04:05:53;101830;;;-1.9;79
76987;BME280;65922;50.086;8.598;2023-02-28T04:06:53;101830;;;-1.9;79
76987;BME280;65922;50.086;8.598;2023-02-28T04:07:53;101820;;;-1.9;79
76987;BME280;65922;50.086;8.598;2023-02-28T04:08:52;101830;;;-1.8;78.7
76987;BME280;65922;50.086;8.598;2023-02-28T04:09:52;101830;;;-1.9;78.8
76987;BME280;65922;50.086;8.598;2023-02-28T04:10:54;101820;;;-2;79.3
76987;BME280;65922;50.086;8.598;2023-02-28T04:11:53;101820;;;-1.8;78.8
76987;BME280;65922;50.086;8.598;2023-02-28T04:12:52;101830;;;-1.9;78.9
76987;BME280;65922;50.086;8.598;2023-02-28T04:13:52;101820;;;-1.8;78.8
76987;BME280;65922;50.086;8.598;2023-02-28T04:14:52;101830;;;-1.9;79
76987;BME280;65922;50.086;8.598;2023-02-28T04:15:52;101830;;;-1.8;79.2
76987;BME280;65922;50.086;8.598;2023-02-28T04:16:52;101830;;;-1.8;79.3
76987;BME280;65922;50.086;8.598;2023-02-28T04:17:53;101830;;;-1.8;79.3
76987;BME280;65922;50.086;8.598;2023-02-28T04:18:52;101830;;;-1.7;79
76987;BME280;65922;50.086;8.598;2023-02-28T04:19:52;101820;;;-1.9;79.4
76987;BME280;65922;50.086;8.598;2023-02-28T04:20:52;101830;;;-1.8;79.3
76987;BME280;65922;50.086;8.598;2023-02-28T04:21:53;101830;;;-1.8;79.4
76987;BME280;65922;50.086;8.598;2023-02-28T04:22:52;101820;;;-1.9;79.9
76987;BME280;65922;50.086;8.598;2023-02-28T04:23:53;101830;;;-2;80
76987;BME280;65922;50.086;8.598;2023-02-28T04:24:52;101830;;;-2;80.2
76987;BME280;65922;50.086;8.598;2023-02-28T04:25:54;101830;;;-1.9;80.1
76987;BME280;65922;50.086;8.598;2023-02-28T04:26:53;101830;;;-1.9;80.1
76987;BME280;65922;50.086;8.598;2023-02-28T04:27:52;101830;;;-1.9;80
76987;BME280;65922;50.086;8.598;2023-02-28T04:28:52;101830;;;-2;80.2
76987;BME280;65922;50.086;8.598;2023-02-28T04:29:53;101830;;;-2;80.2
76987;BME280;65922;50.086;8.598;2023-02-28T04:30:54;101830;;;-2;80.4
76987;BME280;65922;50.086;8.598;2023-02-28T04:31:53;101830;;;-2;80.4
76987;BME280;65922;50.086;8.598;2023-02-28T04:32:52;101830;;;-2;80.6
76987;BME280;65922;50.086;8.598;2023-02-28T04:33:53;101830;;;-2;80.5
76987;BME280;65922;50.086;8.598;2023-02-28T04:34:52;101830;;;-2;80.2
76987;BME280;65922;50.086;8.598;2023-02-28T04:36:00;101830;;;-2;80.4
76987;BME280;65922;50.086;8.598;2023-02-28T04:36:55;101830;;;-1.9;80.2
76987;BME280;65922;50.086;8.598;2023-02-28T04:37:52;101820;;;-1.9;80
76987;BME280;65922;50.086;8.598;2023-02-28T04:38:52;101830;;;-1.9;80
76987;BME280;65922;50.086;8.598;2023-02-28T04:39:52;101820;;;-2;80.2
76987;BME280;65922;50.086;8.598;2023-02-28T04:40:52;101830;;;-2;80.5
76987;BME280;65922;50.086;8.598;2023-02-28T04:41:52;101830;;;-1.9;80
76987;BME280;65922;50.086;8.598;2023-02-28T04:42:52;101830;;;-1.9;80
76987;BME280;65922;50.086;8.598;2023-02-28T04:43:52;101830;;;-1.8;79.7
76987;BME280;65922;50.086;8.598;2023-02-28T04:44:52;101820;;;-1.8;79.3
76987;BME280;65922;50.086;8.598;2023-02-28T04:45:52;101820;;;-1.7;79
76987;BME280;65922;50.086;8.598;2023-02-28T04:46:52;101820;;;-1.7;78.7
76987;BME280;65922;50.086;8.598;2023-02-28T04:47:52;101820;;;-1.7;78.6
76987;BME280;65922;50.086;8.598;2023-02-28T04:48:52;101820;;;-1.7;78.6
76987;BME280;65922;50.086;8.598;2023-02-28T04:49:53;101820;;;-1.7;78.9
76987;BME280;65922;50.086;8.598;2023-02-28T04:50:52;101820;;;-1.7;79
76987;BME280;65922;50.086;8.598;2023-02-28T04:51:52;101820;;;-1.6;78.7
76987;BME280;65922;50.086;8.598;2023-02-28T04:52:52;101820;;;-1.6;78.9
76987;BME280;65922;50.086;8.598;2023-02-28T04:53:52;101820;;;-1.8;79.1
76987;BME280;65922;50.086;8.598;2023-02-28T04:54:52;101830;;;-1.7;78.9
76987;BME280;65922;50.086;8.598;2023-02-28T04:55:52;101820;;;-1.7;78.6
76987;BME280;65922;50.086;8.598;2023-02-28T04:56:52;101830;;;-1.6;78.6
76987;BME280;65922;50.086;8.598;2023-02-28T04:57:53;101820;;;-1.6;78.5
76987;BME280;65922;50.086;8.598;2023-02-28T04:58:52;101820;;;-1.5;78.1
76987;BME280;65922;50.086;8.598;2023-02-28T04:59:52;101820;;;-1.6;78.3
76987;BME280;65922;50.086;8.598;2023-02-28T05:00:53;101820;;;-1.6;78.2
76987;BME280;65922;50.086;8.598;2023-02-28T05:01:52;101830;;;-1.6;78.4
76987;BME280;65922;50.086;8.598;2023-02-28T05:02:52;101820;;;-1.6;78
76987;BME280;65922;50.086;8.598;2023-02-28T05:03:53;101820;;;-1.6;77.8
76987;BME280;65922;50.086;8.598;2023-02-28T05:04:52;101820;;;-1.5;77.7
76987;BME280;65922;50.086;8.598;2023-02-28T05:05:52;101820;;;-1.5;77.9
76987;BME280;65922;50.086;8.598;2023-02-28T05:06:52;101830;;;-1.6;78.4
76987;BME280;65922;50.086;8.598;2023-02-28T05:07:52;101820;;;-1.7;78.8
76987;BME280;65922;50.086;8.598;2023-02-28T05:08:52;101820;;;-1.7;78.9
76987;BME280;65922;50.086;8.598;2023-02-28T05:09:52;101820;;;-1.7;78.7
76987;BME280;65922;50.086;8.598;2023-02-28T05:10:52;101830;;;-1.7;78.5
76987;BME280;65922;50.086;8.598;2023-02-28T05:11:52;101820;;;-1.7;78.7
76987;BME280;65922;50.086;8.598;2023-02-28T05:12:52;101820;;;-1.6;78.7
76987;BME280;65922;50.086;8.598;2023-02-28T05:13:53;101820;;;-1.6;78.5
76987;BME280;65922;50.086;8.598;2023-02-28T05:14:52;101820;;;-1.6;78.2
76987;BME280;65922;50.086;8.598;2023-02-28T05:15:52;101830;;;-1.6;78
76987;BME280;65922;50.086;8.598;2023-02-28T05:16:52;101830;;;-1.5;78
76987;BME280;65922;50.086;8.598;2023-02-28T05:17:52;101830;;;-1.6;78.1
76987;BME280;65922;50.086;8.598;2023-02-28T05:18:52;101830;;;-1.6;78.4
76987;BME280;65922;50.086;8.598;2023-02-28T05:19:52;101830;;;-1.6;78.5
76987;BME280;65922;50.086;8.598;2023-02-28T05:20:52;101830;;;-1.5;77.6
76987;BME280;65922;50.086;8.598;2023-02-28T05:21:53;101840;;;-1.5;77.5
76987;BME280;65922;50.086;8.598;2023-02-28T05:22:52;101830;;;-1.6;77.9
76987;BME280;65922;50.086;8.598;2023-02-28T05:23:53;101830;;;-1.7;78.3
76987;BME280;65922;50.086;8.598;2023-02-28T05:24:52;101830;;;-1.6;78.5
76987;BME280;65922;50.086;8.598;2023-02-28T05:25:53;101840;;;-1.6;78.6
76987;BME280;65922;50.086;8.598;2023-02-28T05:26:53;101840;;;-1.6;78.8
76987;BME280;65922;50.086;8.598;2023-02-28T05:27:52;101830;;;-1.6;78.8
76987;BME280;65922;50.086;8.598;2023-02-28T05:28:52;101840;;;-1.6;78.8
76987;BME280;65922;50.086;8.598;2023-02-28T05:29:52;101840;;;-1.6;78.9
76987;BME280;65922;50.086;8.598;2023-02-28T05:30:52;101840;;;-1.7;79.1
76987;BME280;65922;50.086;8.598;2023-02-28T05:31:52;101840;;;-1.6;79.1
76987;BME280;65922;50.086;8.598;2023-02-28T05:32:52;101840;;;-1.6;78.8
76987;BME280;65922;50.086;8.598;2023-02-28T05:33:52;101830;;;-1.7;78.7
76987;BME280;65922;50.086;8.598;2023-02-28T05:34:52;101830;;;-1.6;78.6
76987;BME280;65922;50.086;8.598;2023-02-28T05:35:52;101840;;;-1.6;78.7
76987;BME280;65922;50.086;8.598;2023-02-28T05:36:52;101840;;;-1.7;79
76987;BME280;65922;50.086;8.598;2023-02-28T05:37:52;101830;;;-1.6;78.5
76987;BME280;65922;50.086;8.598;2023-02-28T05:38:52;101840;;;-1.7;78.9
76987;BME280;65922;50.086;8.598;2023-02-28T05:39:52;101840;;;-1.7;79.2